Williams Field, Antarctica

5:59 PM NZST on July 24, 2014 (GMT +1200)
ANTARCTICA (ISCOTTBA1) Elev 63 ft | 77.85 °S, 166.80 °E | Change Station

Current weather conditions updated 29 minutes ago

Clear
Clear
-20.0 °F
Feels Like -20 °F
N
0.0
Wind Variable Wind from North
Gusts 0.0 mph

Tomorrow is forecast to be nearly the same temperature as today.

Today
High -- | Low -- °F
--% Chance of Precip.
Yesterday
High -- | Low -- °F
Precip. -- in
12:00 PM 12:00 PM
Waning Crescent, 7% visible
Pressure 29.24 in
Visibility 6.2 miles
Clouds Clear
Windchill -20 °F
Dew Point -26 °F
Humidity 75%
Rainfall 0.00 in
Snow Depth Not available.
UV 0 out of 12
Pollen Not available.
Air Quality Not available.
Flu Activity Not available.
METAR NZCM 240555Z VRB04KT 9999 SKC M27/M34 A2922 RMK SLP901

More Conditions Fewer Conditions

Pressure 29.24 in
Visibility 6.2 miles
Clouds Clear
Windchill -20 °F
Dew Point -26 °F
Humidity 75%
Rainfall 0.00 in
Snow Depth Not available.
UV 0 out of 12
Pollen Not available.
Air Quality Not available.
Flu Activity Not available.
METAR NZCM 240555Z VRB04KT 9999 SKC M27/M34 A2922 RMK SLP901

More Conditions Fewer Conditions

10-Day Weather Forecast

Almanac

Astronomy

Jul. 24, 2014 Rise Set
Actual Time Sun does not set Sun does not set
Civil Twilight Sun does not set Sun does not set
Nautical Twilight 9:36 AM NZST 4:22 PM NZST
Astronomical Twilight 7:27 AM NZST 6:31 PM NZST
Moon No Moon Rise No Moon Set
Length of Visible Light 0h 00m
Length of Day
0h 00m
Tomorrow will be 0m 0s shorter.
Waning Crescent, 7% of the Moon is Illuminated
Today
Waning Crescent
Jul 26
New
Aug 3
First Quarter
Aug 10
Full
Aug 17
Last Quarter

Yesterday's Extremes

Country Highs Country Lows

Community

WunderPhotos

Upload Photos

1,736,923 photos uploaded!

Nearby

Snow Depth

Not available.

Earthquake Activity

City Distance Mag. Time & Date
No recent earthquake activity has been reported nearby.
Minimum magnitude displayed is 2.5.

Coastal Water Temperatures

Place Temperature
No Stations Reporting

Nearby Weather Stations

Station Location Temp. Windchill Dew Point Humidity Wind Precip. Elev Updated Type
ANTARCTICA, Scott Base -20.0 °F -20 °F -26 °F 75% North  at  0.0 mph 0.00 in / hr 63 ft 5:30 PM NZST Normal
McMurdo Station, McMurdo -17.6 °F -38 °F -18 °F - ESE  at  10.0 mph - / hr 60 ft 5:59 PM NZST Rapid Fire

Show More Stations Show Fewer Stations